sensor_id;sensor_type;location;lat;lon;timestamp;temperature;humidity
33255;DHT22;19623;52.482;9.762;2022-08-01T00:01:53;19.70;99.90
33255;DHT22;19623;52.482;9.762;2022-08-01T00:04:18;19.70;99.90
33255;DHT22;19623;52.482;9.762;2022-08-01T00:06:44;19.70;99.90
33255;DHT22;19623;52.482;9.762;2022-08-01T00:09:10;19.60;99.90
33255;DHT22;19623;52.482;9.762;2022-08-01T00:11:35;19.60;99.90
33255;DHT22;19623;52.482;9.762;2022-08-01T00:14:01;19.60;99.90
33255;DHT22;19623;52.482;9.762;2022-08-01T00:16:27;19.50;99.90
33255;DHT22;19623;52.482;9.762;2022-08-01T00:18:52;19.50;99.90
33255;DHT22;19623;52.482;9.762;2022-08-01T00:21:18;19.50;99.90
33255;DHT22;19623;52.482;9.762;2022-08-01T00:23:44;19.50;99.90
33255;DHT22;19623;52.482;9.762;2022-08-01T00:26:12;19.50;99.90
33255;DHT22;19623;52.482;9.762;2022-08-01T00:28:38;19.50;99.90
33255;DHT22;19623;52.482;9.762;2022-08-01T00:31:04;19.50;99.90
33255;DHT22;19623;52.482;9.762;2022-08-01T00:33:30;19.50;99.90
33255;DHT22;19623;52.482;9.762;2022-08-01T00:35:55;19.40;99.90
33255;DHT22;19623;52.482;9.762;2022-08-01T00:38:21;19.40;99.90
33255;DHT22;19623;52.482;9.762;2022-08-01T00:40:47;19.50;99.90
33255;DHT22;19623;52.482;9.762;2022-08-01T00:43:13;19.50;99.90
33255;DHT22;19623;52.482;9.762;2022-08-01T00:45:38;19.50;99.90
33255;DHT22;19623;52.482;9.762;2022-08-01T00:48:04;19.50;99.90
33255;DHT22;19623;52.482;9.762;2022-08-01T00:50:30;19.40;99.90
33255;DHT22;19623;52.482;9.762;2022-08-01T00:52:56;19.50;99.90
33255;DHT22;19623;52.482;9.762;2022-08-01T00:55:23;19.50;99.90
33255;DHT22;19623;52.482;9.762;2022-08-01T00:57:49;19.50;99.90
33255;DHT22;19623;52.482;9.762;2022-08-01T01:00:15;19.50;99.90
33255;DHT22;19623;52.482;9.762;2022-08-01T01:02:40;19.50;99.90
33255;DHT22;19623;52.482;9.762;2022-08-01T01:05:07;19.50;99.90
33255;DHT22;19623;52.482;9.762;2022-08-01T01:08:21;19.50;99.90
33255;DHT22;19623;52.482;9.762;2022-08-01T01:10:40;19.50;99.90
33255;DHT22;19623;52.482;9.762;2022-08-01T01:15:57;19.50;99.90
33255;DHT22;19623;52.482;9.762;2022-08-01T01:18:29;19.60;99.90
33255;DHT22;19623;52.482;9.762;2022-08-01T01:24:19;19.60;99.90
33255;DHT22;19623;52.482;9.762;2022-08-01T01:27:18;19.60;99.90
33255;DHT22;19623;52.482;9.762;2022-08-01T01:29:52;19.60;99.90
33255;DHT22;19623;52.482;9.762;2022-08-01T01:32:34;19.60;99.90
33255;DHT22;19623;52.482;9.762;2022-08-01T01:35:03;19.60;99.90
33255;DHT22;19623;52.482;9.762;2022-08-01T01:37:31;19.60;99.90
33255;DHT22;19623;52.482;9.762;2022-08-01T01:39:58;19.60;99.90
33255;DHT22;19623;52.482;9.762;2022-08-01T01:42:25;19.50;99.90
33255;DHT22;19623;52.482;9.762;2022-08-01T01:44:52;19.50;99.90
33255;DHT22;19623;52.482;9.762;2022-08-01T01:47:19;19.50;99.90
33255;DHT22;19623;52.482;9.762;2022-08-01T01:49:47;19.50;99.90
33255;DHT22;19623;52.482;9.762;2022-08-01T01:52:16;19.40;99.90
33255;DHT22;19623;52.482;9.762;2022-08-01T01:54:52;19.40;99.90
33255;DHT22;19623;52.482;9.762;2022-08-01T01:57:20;19.30;99.90
33255;DHT22;19623;52.482;9.762;2022-08-01T01:59:47;19.30;99.90
33255;DHT22;19623;52.482;9.762;2022-08-01T02:02:15;19.20;99.90
33255;DHT22;19623;52.482;9.762;2022-08-01T02:04:43;19.20;99.90
33255;DHT22;19623;52.482;9.762;2022-08-01T02:07:14;19.20;99.90
33255;DHT22;19623;52.482;9.762;2022-08-01T02:09:43;19.10;99.90
33255;DHT22;19623;52.482;9.762;2022-08-01T02:12:12;19.10;99.90
33255;DHT22;19623;52.482;9.762;2022-08-01T02:14:39;19.10;99.90
33255;DHT22;19623;52.482;9.762;2022-08-01T02:17:06;19.10;99.90
33255;DHT22;19623;52.482;9.762;2022-08-01T02:19:34;19.10;99.90
33255;DHT22;19623;52.482;9.762;2022-08-01T02:22:26;19.10;99.90
33255;DHT22;19623;52.482;9.762;2022-08-01T02:25:00;19.10;99.90
33255;DHT22;19623;52.482;9.762;2022-08-01T02:27:37;19.00;99.90
33255;DHT22;19623;52.482;9.762;2022-08-01T02:30:07;19.00;99.90
33255;DHT22;19623;52.482;9.762;2022-08-01T02:35:01;19.00;99.90
33255;DHT22;19623;52.482;9.762;2022-08-01T02:37:31;19.10;99.90
33255;DHT22;19623;52.482;9.762;2022-08-01T02:39:58;19.10;99.90
33255;DHT22;19623;52.482;9.762;2022-08-01T02:42:26;19.00;99.90
33255;DHT22;19623;52.482;9.762;2022-08-01T02:44:53;19.00;99.90
33255;DHT22;19623;52.482;9.762;2022-08-01T02:47:20;19.00;99.90
33255;DHT22;19623;52.482;9.762;2022-08-01T02:49:48;19.00;99.90
33255;DHT22;19623;52.482;9.762;2022-08-01T02:52:18;18.90;99.90
33255;DHT22;19623;52.482;9.762;2022-08-01T02:54:48;19.00;99.90
33255;DHT22;19623;52.482;9.762;2022-08-01T02:57:16;18.90;99.90
33255;DHT22;19623;52.482;9.762;2022-08-01T02:59:44;19.00;99.90
33255;DHT22;19623;52.482;9.762;2022-08-01T03:02:11;19.00;99.90
33255;DHT22;19623;52.482;9.762;2022-08-01T03:04:38;19.00;99.90
33255;DHT22;19623;52.482;9.762;2022-08-01T03:07:06;18.90;99.90
33255;DHT22;19623;52.482;9.762;2022-08-01T03:09:36;18.90;99.90
33255;DHT22;19623;52.482;9.762;2022-08-01T03:12:06;18.90;99.90
33255;DHT22;19623;52.482;9.762;2022-08-01T03:14:35;18.90;99.90
33255;DHT22;19623;52.482;9.762;2022-08-01T03:17:02;18.90;99.90
33255;DHT22;19623;52.482;9.762;2022-08-01T03:19:29;18.90;99.90
33255;DHT22;19623;52.482;9.762;2022-08-01T03:21:57;18.90;99.90
33255;DHT22;19623;52.482;9.762;2022-08-01T03:24:28;18.90;99.90
33255;DHT22;19623;52.482;9.762;2022-08-01T03:26:56;18.80;99.90
33255;DHT22;19623;52.482;9.762;2022-08-01T03:29:26;18.80;99.90
33255;DHT22;19623;52.482;9.762;2022-08-01T03:31:52;18.80;99.90
33255;DHT22;19623;52.482;9.762;2022-08-01T03:34:19;18.70;99.90
33255;DHT22;19623;52.482;9.762;2022-08-01T03:36:55;18.70;99.90
33255;DHT22;19623;52.482;9.762;2022-08-01T03:39:26;18.70;99.90
33255;DHT22;19623;52.482;9.762;2022-08-01T03:41:58;18.70;99.90
33255;DHT22;19623;52.482;9.762;2022-08-01T03:44:27;18.70;99.90
33255;DHT22;19623;52.482;9.762;2022-08-01T03:46:59;18.70;99.90
33255;DHT22;19623;52.482;9.762;2022-08-01T03:49:31;18.70;99.90
33255;DHT22;19623;52.482;9.762;2022-08-01T03:51:59;18.70;99.90
33255;DHT22;19623;52.482;9.762;2022-08-01T03:54:29;18.70;99.90
33255;DHT22;19623;52.482;9.762;2022-08-01T03:56:57;18.60;99.90
33255;DHT22;19623;52.482;9.762;2022-08-01T03:59:23;18.60;99.90
33255;DHT22;19623;52.482;9.762;2022-08-01T04:01:50;18.60;99.90
33255;DHT22;19623;52.482;9.762;2022-08-01T04:04:15;18.60;99.90
33255;DHT22;19623;52.482;9.762;2022-08-01T04:06:42;18.60;99.90
33255;DHT22;19623;52.482;9.762;2022-08-01T04:09:10;18.60;99.90
33255;DHT22;19623;52.482;9.762;2022-08-01T04:11:37;18.70;99.90
33255;DHT22;19623;52.482;9.762;2022-08-01T04:14:03;18.70;99.90
33255;DHT22;19623;52.482;9.762;2022-08-01T04:16:29;18.70;99.90
33255;DHT22;19623;52.482;9.762;2022-08-01T04:18:55;18.70;99.90
33255;DHT22;19623;52.482;9.762;2022-08-01T04:21:23;18.70;99.90
33255;DHT22;19623;52.482;9.762;2022-08-01T04:23:52;18.70;99.90
33255;DHT22;19623;52.482;9.762;2022-08-01T04:26:20;18.70;99.90
33255;DHT22;19623;52.482;9.762;2022-08-01T04:28:47;18.80;99.90
33255;DHT22;19623;52.482;9.762;2022-08-01T04:31:16;18.80;99.90
33255;DHT22;19623;52.482;9.762;2022-08-01T04:33:47;18.80;99.90
33255;DHT22;19623;52.482;9.762;2022-08-01T04:36:17;18.80;99.90
33255;DHT22;19623;52.482;9.762;2022-08-01T04:38:46;18.80;99.90
33255;DHT22;19623;52.482;9.762;2022-08-01T04:41:14;18.80;99.90
33255;DHT22;19623;52.482;9.762;2022-08-01T04:43:41;18.90;99.90
33255;DHT22;19623;52.482;9.762;2022-08-01T04:46:07;18.90;99.90
33255;DHT22;19623;52.482;9.762;2022-08-01T04:48:37;18.90;99.90
33255;DHT22;19623;52.482;9.762;2022-08-01T04:51:03;19.00;99.90
33255;DHT22;19623;52.482;9.762;2022-08-01T04:53:29;18.90;99.90
33255;DHT22;19623;52.482;9.762;2022-08-01T04:55:58;19.00;99.90
33255;DHT22;19623;52.482;9.762;2022-08-01T04:58:23;19.00;99.90
33255;DHT22;19623;52.482;9.762;2022-08-01T05:00:49;19.00;99.90
33255;DHT22;19623;52.482;9.762;2022-08-01T05:03:15;19.00;99.90
33255;DHT22;19623;52.482;9.762;2022-08-01T05:05:40;19.00;99.90
33255;DHT22;19623;52.482;9.762;2022-08-01T05:08:06;19.10;99.90
33255;DHT22;19623;52.482;9.762;2022-08-01T05:10:32;19.10;99.90
33255;DHT22;19623;52.482;9.762;2022-08-01T05:12:57;19.20;99.90
33255;DHT22;19623;52.482;9.762;2022-08-01T05:15:23;19.20;99.90
33255;DHT22;19623;52.482;9.762;2022-08-01T05:17:49;19.30;99.90
33255;DHT22;19623;52.482;9.762;2022-08-01T05:20:14;19.30;99.90
33255;DHT22;19623;52.482;9.762;2022-08-01T05:22:41;19.30;99.90
33255;DHT22;19623;52.482;9.762;2022-08-01T05:25:08;19.40;99.90
33255;DHT22;19623;52.482;9.762;2022-08-01T05:27:33;19.40;99.90
33255;DHT22;19623;52.482;9.762;2022-08-01T05:30:05;19.40;99.90
33255;DHT22;19623;52.482;9.762;2022-08-01T05:32:31;19.30;99.90
33255;DHT22;19623;52.482;9.762;2022-08-01T05:34:57;19.30;99.90
33255;DHT22;19623;52.482;9.762;2022-08-01T05:37:22;19.30;99.90
33255;DHT22;19623;52.482;9.762;2022-08-01T05:39:48;19.20;99.90
33255;DHT22;19623;52.482;9.762;2022-08-01T05:42:14;19.10;99.90
33255;DHT22;19623;52.482;9.762;2022-08-01T05:44:39;19.00;99.90
33255;DHT22;19623;52.482;9.762;2022-08-01T05:47:05;19.00;99.90
33255;DHT22;19623;52.482;9.762;2022-08-01T05:49:30;19.10;99.90
33255;DHT22;19623;52.482;9.762;2022-08-01T05:51:56;19.10;99.90
33255;DHT22;19623;52.482;9.762;2022-08-01T05:54:22;18.90;99.90
33255;DHT22;19623;52.482;9.762;2022-08-01T05:56:47;18.90;99.90
33255;DHT22;19623;52.482;9.762;2022-08-01T05:59:13;18.90;99.90
33255;DHT22;19623;52.482;9.762;2022-08-01T06:01:38;19.00;99.90
33255;DHT22;19623;52.482;9.762;2022-08-01T06:04:04;19.00;99.90
33255;DHT22;19623;52.482;9.762;2022-08-01T06:06:30;19.00;99.90
33255;DHT22;19623;52.482;9.762;2022-08-01T06:08:55;19.10;99.90
33255;DHT22;19623;52.482;9.762;2022-08-01T06:11:21;19.10;99.90
33255;DHT22;19623;52.482;9.762;2022-08-01T06:13:46;19.10;99.90
33255;DHT22;19623;52.482;9.762;2022-08-01T06:16:12;19.30;99.90
33255;DHT22;19623;52.482;9.762;2022-08-01T06:18:38;19.40;99.90
33255;DHT22;19623;52.482;9.762;2022-08-01T06:21:03;19.50;99.90
33255;DHT22;19623;52.482;9.762;2022-08-01T06:23:29;19.50;99.90
33255;DHT22;19623;52.482;9.762;2022-08-01T06:25:54;19.50;99.90
33255;DHT22;19623;52.482;9.762;2022-08-01T06:28:21;19.50;99.90
33255;DHT22;19623;52.482;9.762;2022-08-01T06:30:47;19.40;99.90
33255;DHT22;19623;52.482;9.762;2022-08-01T06:33:12;19.30;99.90
33255;DHT22;19623;52.482;9.762;2022-08-01T06:35:38;19.40;99.90
33255;DHT22;19623;52.482;9.762;2022-08-01T06:38:04;19.60;99.90
33255;DHT22;19623;52.482;9.762;2022-08-01T06:40:29;19.70;99.90
33255;DHT22;19623;52.482;9.762;2022-08-01T06:42:55;19.80;99.90
33255;DHT22;19623;52.482;9.762;2022-08-01T06:45:21;19.90;99.90
33255;DHT22;19623;52.482;9.762;2022-08-01T06:47:51;19.90;99.90
33255;DHT22;19623;52.482;9.762;2022-08-01T06:50:17;19.90;99.90
33255;DHT22;19623;52.482;9.762;2022-08-01T06:52:43;20.10;99.90
33255;DHT22;19623;52.482;9.762;2022-08-01T06:55:09;20.20;99.90
33255;DHT22;19623;52.482;9.762;2022-08-01T06:57:35;20.30;99.90
33255;DHT22;19623;52.482;9.762;2022-08-01T07:00:05;20.30;99.90
33255;DHT22;19623;52.482;9.762;2022-08-01T07:02:34;20.30;99.90
33255;DHT22;19623;52.482;9.762;2022-08-01T07:04:59;20.50;99.90
33255;DHT22;19623;52.482;9.762;2022-08-01T07:07:26;20.60;99.90
33255;DHT22;19623;52.482;9.762;2022-08-01T07:09:52;20.80;99.90
33255;DHT22;19623;52.482;9.762;2022-08-01T07:12:18;20.90;99.90
33255;DHT22;19623;52.482;9.762;2022-08-01T07:14:43;20.90;99.90
33255;DHT22;19623;52.482;9.762;2022-08-01T07:17:09;20.90;99.90
33255;DHT22;19623;52.482;9.762;2022-08-01T07:19:34;20.90;99.90
33255;DHT22;19623;52.482;9.762;2022-08-01T07:22:00;20.90;99.90
33255;DHT22;19623;52.482;9.762;2022-08-01T07:24:26;20.90;99.90
33255;DHT22;19623;52.482;9.762;2022-08-01T07:26:51;20.80;99.90
33255;DHT22;19623;52.482;9.762;2022-08-01T07:29:20;20.70;99.90
33255;DHT22;19623;52.482;9.762;2022-08-01T07:31:45;20.60;99.90
33255;DHT22;19623;52.482;9.762;2022-08-01T07:34:11;20.50;99.90
33255;DHT22;19623;52.482;9.762;2022-08-01T07:36:36;20.40;99.90
33255;DHT22;19623;52.482;9.762;2022-08-01T07:39:02;20.40;99.90
33255;DHT22;19623;52.482;9.762;2022-08-01T07:41:27;20.20;99.90
33255;DHT22;19623;52.482;9.762;2022-08-01T07:43:53;20.20;99.90
33255;DHT22;19623;52.482;9.762;2022-08-01T07:46:19;20.30;99.90
33255;DHT22;19623;52.482;9.762;2022-08-01T07:48:44;20.40;99.90
33255;DHT22;19623;52.482;9.762;2022-08-01T07:51:10;20.50;99.90
33255;DHT22;19623;52.482;9.762;2022-08-01T07:53:37;20.70;99.90
33255;DHT22;19623;52.482;9.762;2022-08-01T07:56:03;20.90;99.90
33255;DHT22;19623;52.482;9.762;2022-08-01T07:58:31;21.10;99.90
33255;DHT22;19623;52.482;9.762;2022-08-01T08:00:57;21.30;99.90
33255;DHT22;19623;52.482;9.762;2022-08-01T08:03:22;21.40;99.90
33255;DHT22;19623;52.482;9.762;2022-08-01T08:05:48;21.30;99.90
33255;DHT22;19623;52.482;9.762;2022-08-01T08:08:14;21.10;99.90
33255;DHT22;19623;52.482;9.762;2022-08-01T08:10:41;21.00;99.90
33255;DHT22;19623;52.482;9.762;2022-08-01T08:13:06;21.10;99.90
33255;DHT22;19623;52.482;9.762;2022-08-01T08:15:32;21.10;99.90
33255;DHT22;19623;52.482;9.762;2022-08-01T08:17:58;21.10;99.90
33255;DHT22;19623;52.482;9.762;2022-08-01T08:20:23;21.20;99.90
33255;DHT22;19623;52.482;9.762;2022-08-01T08:22:55;21.30;99.90
33255;DHT22;19623;52.482;9.762;2022-08-01T08:25:21;21.40;99.90
33255;DHT22;19623;52.482;9.762;2022-08-01T08:27:49;21.40;99.90
33255;DHT22;19623;52.482;9.762;2022-08-01T08:30:15;21.30;99.90
33255;DHT22;19623;52.482;9.762;2022-08-01T08:32:41;21.30;99.90
33255;DHT22;19623;52.482;9.762;2022-08-01T08:35:08;21.40;99.90
33255;DHT22;19623;52.482;9.762;2022-08-01T08:37:34;21.60;99.90
33255;DHT22;19623;52.482;9.762;2022-08-01T08:40:01;21.80;99.90
33255;DHT22;19623;52.482;9.762;2022-08-01T08:42:27;21.80;99.90
33255;DHT22;19623;52.482;9.762;2022-08-01T08:44:52;21.90;99.90
33255;DHT22;19623;52.482;9.762;2022-08-01T08:47:21;21.90;99.90
33255;DHT22;19623;52.482;9.762;2022-08-01T08:49:49;21.90;99.90
33255;DHT22;19623;52.482;9.762;2022-08-01T08:52:18;21.80;99.90
33255;DHT22;19623;52.482;9.762;2022-08-01T08:54:45;21.90;99.90
33255;DHT22;19623;52.482;9.762;2022-08-01T08:57:13;22.00;99.90
33255;DHT22;19623;52.482;9.762;2022-08-01T08:59:40;22.00;99.90
33255;DHT22;19623;52.482;9.762;2022-08-01T09:02:07;22.00;99.90
33255;DHT22;19623;52.482;9.762;2022-08-01T09:04:35;22.00;99.90
33255;DHT22;19623;52.482;9.762;2022-08-01T09:07:04;21.80;99.90
33255;DHT22;19623;52.482;9.762;2022-08-01T09:09:30;21.90;99.90
33255;DHT22;19623;52.482;9.762;2022-08-01T09:11:55;21.90;99.90
33255;DHT22;19623;52.482;9.762;2022-08-01T09:14:22;22.00;99.90
33255;DHT22;19623;52.482;9.762;2022-08-01T09:17:06;22.00;99.90
33255;DHT22;19623;52.482;9.762;2022-08-01T09:19:44;22.20;99.90
33255;DHT22;19623;52.482;9.762;2022-08-01T09:22:15;22.40;99.90
33255;DHT22;19623;52.482;9.762;2022-08-01T09:25:03;22.60;99.90
33255;DHT22;19623;52.482;9.762;2022-08-01T09:27:30;22.70;99.90
33255;DHT22;19623;52.482;9.762;2022-08-01T09:30:15;22.70;99.90
33255;DHT22;19623;52.482;9.762;2022-08-01T09:33:00;22.70;99.90
33255;DHT22;19623;52.482;9.762;2022-08-01T09:35:35;22.60;99.90
33255;DHT22;19623;52.482;9.762;2022-08-01T09:38:21;22.60;99.90
33255;DHT22;19623;52.482;9.762;2022-08-01T09:40:48;22.50;99.90
33255;DHT22;19623;52.482;9.762;2022-08-01T09:43:14;22.40;99.90
33255;DHT22;19623;52.482;9.762;2022-08-01T09:45:39;22.10;99.90
33255;DHT22;19623;52.482;9.762;2022-08-01T09:48:09;21.90;99.90
33255;DHT22;19623;52.482;9.762;2022-08-01T09:50:42;21.70;99.90
33255;DHT22;19623;52.482;9.762;2022-08-01T09:53:09;21.40;99.90
33255;DHT22;19623;52.482;9.762;2022-08-01T09:55:36;21.30;99.90
33255;DHT22;19623;52.482;9.762;2022-08-01T09:58:02;21.20;99.90
33255;DHT22;19623;52.482;9.762;2022-08-01T10:00:30;21.10;99.90
33255;DHT22;19623;52.482;9.762;2022-08-01T10:02:56;20.90;99.90
33255;DHT22;19623;52.482;9.762;2022-08-01T10:05:32;20.70;99.90
33255;DHT22;19623;52.482;9.762;2022-08-01T10:08:03;20.60;99.90
33255;DHT22;19623;52.482;9.762;2022-08-01T10:10:30;20.40;99.90
33255;DHT22;19623;52.482;9.762;2022-08-01T10:12:57;20.50;99.90
33255;DHT22;19623;52.482;9.762;2022-08-01T10:15:24;20.60;99.90
33255;DHT22;19623;52.482;9.762;2022-08-01T10:17:57;20.80;99.90
33255;DHT22;19623;52.482;9.762;2022-08-01T10:20:29;21.00;99.90
33255;DHT22;19623;52.482;9.762;2022-08-01T10:22:57;21.20;99.90
33255;DHT22;19623;52.482;9.762;2022-08-01T10:25:23;21.40;99.90
33255;DHT22;19623;52.482;9.762;2022-08-01T10:27:53;21.50;99.90
33255;DHT22;19623;52.482;9.762;2022-08-01T10:30:23;21.50;99.90
33255;DHT22;19623;52.482;9.762;2022-08-01T10:32:49;21.40;99.90
33255;DHT22;19623;52.482;9.762;2022-08-01T10:35:16;21.40;99.90
33255;DHT22;19623;52.482;9.762;2022-08-01T10:37:43;21.20;99.90
33255;DHT22;19623;52.482;9.762;2022-08-01T10:40:12;21.10;99.90
33255;DHT22;19623;52.482;9.762;2022-08-01T10:42:40;21.40;99.90
33255;DHT22;19623;52.482;9.762;2022-08-01T10:45:07;21.60;99.90
33255;DHT22;19623;52.482;9.762;2022-08-01T10:47:40;21.90;99.90
33255;DHT22;19623;52.482;9.762;2022-08-01T10:50:21;21.70;99.90
33255;DHT22;19623;52.482;9.762;2022-08-01T10:53:10;21.70;99.90
33255;DHT22;19623;52.482;9.762;2022-08-01T10:55:49;22.00;99.90
33255;DHT22;19623;52.482;9.762;2022-08-01T10:58:29;22.20;99.90
33255;DHT22;19623;52.482;9.762;2022-08-01T11:01:17;22.40;99.90
33255;DHT22;19623;52.482;9.762;2022-08-01T11:04:11;22.50;99.90
33255;DHT22;19623;52.482;9.762;2022-08-01T11:06:48;22.60;99.90
33255;DHT22;19623;52.482;9.762;2022-08-01T11:09:17;22.80;99.90
33255;DHT22;19623;52.482;9.762;2022-08-01T11:12:08;22.90;99.90
33255;DHT22;19623;52.482;9.762;2022-08-01T11:20:07;22.80;99.90
33255;DHT22;19623;52.482;9.762;2022-08-01T11:25:25;22.80;99.90
33255;DHT22;19623;52.482;9.762;2022-08-01T11:30:50;22.90;99.90
33255;DHT22;19623;52.482;9.762;2022-08-01T11:33:18;22.80;99.90
33255;DHT22;19623;52.482;9.762;2022-08-01T11:38:39;23.00;99.90
33255;DHT22;19623;52.482;9.762;2022-08-01T11:44:19;22.90;99.90
33255;DHT22;19623;52.482;9.762;2022-08-01T11:54:38;22.90;99.90
33255;DHT22;19623;52.482;9.762;2022-08-01T11:57:09;22.90;99.90
33255;DHT22;19623;52.482;9.762;2022-08-01T11:59:37;23.20;99.90
33255;DHT22;19623;52.482;9.762;2022-08-01T12:02:03;23.40;99.90
33255;DHT22;19623;52.482;9.762;2022-08-01T12:07:24;23.50;99.90
33255;DHT22;19623;52.482;9.762;2022-08-01T12:10:01;23.40;99.90
33255;DHT22;19623;52.482;9.762;2022-08-01T12:12:28;23.20;99.90
33255;DHT22;19623;52.482;9.762;2022-08-01T12:15:00;23.40;99.90
33255;DHT22;19623;52.482;9.762;2022-08-01T12:17:37;23.60;99.90
33255;DHT22;19623;52.482;9.762;2022-08-01T12:20:06;23.60;99.90
33255;DHT22;19623;52.482;9.762;2022-08-01T12:22:32;23.80;99.90
33255;DHT22;19623;52.482;9.762;2022-08-01T12:25:08;23.90;99.90
33255;DHT22;19623;52.482;9.762;2022-08-01T12:27:35;24.10;99.90
33255;DHT22;19623;52.482;9.762;2022-08-01T12:30:03;24.00;99.90
33255;DHT22;19623;52.482;9.762;2022-08-01T12:32:32;24.10;99.90
33255;DHT22;19623;52.482;9.762;2022-08-01T12:37:38;24.10;99.90
33255;DHT22;19623;52.482;9.762;2022-08-01T12:42:41;24.20;99.90
33255;DHT22;19623;52.482;9.762;2022-08-01T12:45:09;24.10;99.90
33255;DHT22;19623;52.482;9.762;2022-08-01T12:47:36;24.30;99.90
33255;DHT22;19623;52.482;9.762;2022-08-01T12:50:06;24.60;99.90
33255;DHT22;19623;52.482;9.762;2022-08-01T12:52:33;24.50;99.90
33255;DHT22;19623;52.482;9.762;2022-08-01T12:55:11;24.60;99.90
33255;DHT22;19623;52.482;9.762;2022-08-01T12:57:45;24.60;99.90
33255;DHT22;19623;52.482;9.762;2022-08-01T13:00:20;24.70;99.90
33255;DHT22;19623;52.482;9.762;2022-08-01T13:02:49;24.70;99.90
33255;DHT22;19623;52.482;9.762;2022-08-01T13:05:16;24.50;99.90
33255;DHT22;19623;52.482;9.762;2022-08-01T13:07:51;24.50;99.90
33255;DHT22;19623;52.482;9.762;2022-08-01T13:10:30;24.50;99.90
33255;DHT22;19623;52.482;9.762;2022-08-01T13:12:57;24.40;99.90
33255;DHT22;19623;52.482;9.762;2022-08-01T13:15:32;24.10;99.90
33255;DHT22;19623;52.482;9.762;2022-08-01T13:18:00;24.00;99.90
33255;DHT22;19623;52.482;9.762;2022-08-01T13:20:28;23.90;99.90
33255;DHT22;19623;52.482;9.762;2022-08-01T13:22:54;24.10;99.90
33255;DHT22;19623;52.482;9.762;2022-08-01T13:25:20;24.20;99.90
33255;DHT22;19623;52.482;9.762;2022-08-01T13:27:46;24.30;99.90
33255;DHT22;19623;52.482;9.762;2022-08-01T13:30:16;24.40;99.90
33255;DHT22;19623;52.482;9.762;2022-08-01T13:32:43;24.50;99.90
33255;DHT22;19623;52.482;9.762;2022-08-01T13:35:11;24.70;99.90
33255;DHT22;19623;52.482;9.762;2022-08-01T13:37:41;24.70;99.90
33255;DHT22;19623;52.482;9.762;2022-08-01T13:40:09;24.70;99.90
33255;DHT22;19623;52.482;9.762;2022-08-01T13:42:35;24.70;99.90
33255;DHT22;19623;52.482;9.762;2022-08-01T13:45:01;24.70;99.90
33255;DHT22;19623;52.482;9.762;2022-08-01T13:47:27;24.70;99.90
33255;DHT22;19623;52.482;9.762;2022-08-01T13:49:53;24.70;99.90
33255;DHT22;19623;52.482;9.762;2022-08-01T13:52:19;24.80;99.90
33255;DHT22;19623;52.482;9.762;2022-08-01T13:54:44;24.80;99.90
33255;DHT22;19623;52.482;9.762;2022-08-01T13:57:10;24.80;99.90
33255;DHT22;19623;52.482;9.762;2022-08-01T13:59:35;24.80;99.90
33255;DHT22;19623;52.482;9.762;2022-08-01T14:02:01;24.80;99.90
33255;DHT22;19623;52.482;9.762;2022-08-01T14:04:27;24.70;99.90
33255;DHT22;19623;52.482;9.762;2022-08-01T14:06:52;24.60;99.90
33255;DHT22;19623;52.482;9.762;2022-08-01T14:09:18;24.50;99.90
33255;DHT22;19623;52.482;9.762;2022-08-01T14:11:45;24.40;99.90
33255;DHT22;19623;52.482;9.762;2022-08-01T14:14:11;24.10;99.90
33255;DHT22;19623;52.482;9.762;2022-08-01T14:16:37;23.90;99.90
33255;DHT22;19623;52.482;9.762;2022-08-01T14:19:03;23.80;99.90
33255;DHT22;19623;52.482;9.762;2022-08-01T14:21:29;23.80;99.90
33255;DHT22;19623;52.482;9.762;2022-08-01T14:23:54;23.80;99.90
33255;DHT22;19623;52.482;9.762;2022-08-01T14:26:20;23.80;99.90
33255;DHT22;19623;52.482;9.762;2022-08-01T14:28:45;23.90;99.90
33255;DHT22;19623;52.482;9.762;2022-08-01T14:31:11;23.80;99.90
33255;DHT22;19623;52.482;9.762;2022-08-01T14:33:37;23.90;99.90
33255;DHT22;19623;52.482;9.762;2022-08-01T14:36:03;23.90;99.90
33255;DHT22;19623;52.482;9.762;2022-08-01T14:38:28;24.00;99.90
33255;DHT22;19623;52.482;9.762;2022-08-01T14:40:54;24.00;99.90
33255;DHT22;19623;52.482;9.762;2022-08-01T14:43:20;24.00;99.90
33255;DHT22;19623;52.482;9.762;2022-08-01T14:45:46;24.20;99.90
33255;DHT22;19623;52.482;9.762;2022-08-01T14:48:18;24.40;99.90
33255;DHT22;19623;52.482;9.762;2022-08-01T14:50:44;24.60;99.90
33255;DHT22;19623;52.482;9.762;2022-08-01T14:53:09;24.60;99.90
33255;DHT22;19623;52.482;9.762;2022-08-01T14:55:35;24.70;99.90
33255;DHT22;19623;52.482;9.762;2022-08-01T14:58:00;24.70;99.90
33255;DHT22;19623;52.482;9.762;2022-08-01T15:00:26;24.70;99.90
33255;DHT22;19623;52.482;9.762;2022-08-01T15:02:52;24.70;99.90
33255;DHT22;19623;52.482;9.762;2022-08-01T15:05:17;24.60;99.90
33255;DHT22;19623;52.482;9.762;2022-08-01T15:07:43;24.70;99.90
33255;DHT22;19623;52.482;9.762;2022-08-01T15:10:09;24.70;99.90
33255;DHT22;19623;52.482;9.762;2022-08-01T15:12:35;24.60;99.90
33255;DHT22;19623;52.482;9.762;2022-08-01T15:15:01;24.50;99.90
33255;DHT22;19623;52.482;9.762;2022-08-01T15:17:28;24.40;99.90
33255;DHT22;19623;52.482;9.762;2022-08-01T15:19:58;24.40;99.90
33255;DHT22;19623;52.482;9.762;2022-08-01T15:22:24;24.30;99.90
33255;DHT22;19623;52.482;9.762;2022-08-01T15:24:52;24.10;99.90
33255;DHT22;19623;52.482;9.762;2022-08-01T15:27:18;24.00;99.90
33255;DHT22;19623;52.482;9.762;2022-08-01T15:29:44;24.00;99.90
33255;DHT22;19623;52.482;9.762;2022-08-01T15:32:10;24.00;99.90
33255;DHT22;19623;52.482;9.762;2022-08-01T15:34:37;23.90;99.90
33255;DHT22;19623;52.482;9.762;2022-08-01T15:37:03;24.00;99.90
33255;DHT22;19623;52.482;9.762;2022-08-01T15:39:30;24.00;99.90
33255;DHT22;19623;52.482;9.762;2022-08-01T15:41:59;24.00;99.90
33255;DHT22;19623;52.482;9.762;2022-08-01T15:44:25;24.10;99.90
33255;DHT22;19623;52.482;9.762;2022-08-01T15:46:50;24.20;99.90
33255;DHT22;19623;52.482;9.762;2022-08-01T15:49:17;24.00;99.90
33255;DHT22;19623;52.482;9.762;2022-08-01T15:51:43;23.80;99.90
33255;DHT22;19623;52.482;9.762;2022-08-01T15:54:09;23.90;99.90
33255;DHT22;19623;52.482;9.762;2022-08-01T15:56:35;24.00;99.90
33255;DHT22;19623;52.482;9.762;2022-08-01T15:59:01;24.20;99.90
33255;DHT22;19623;52.482;9.762;2022-08-01T16:01:27;24.40;99.90
33255;DHT22;19623;52.482;9.762;2022-08-01T16:03:54;24.60;99.90
33255;DHT22;19623;52.482;9.762;2022-08-01T16:06:20;24.70;99.90
33255;DHT22;19623;52.482;9.762;2022-08-01T16:08:46;24.70;99.90
33255;DHT22;19623;52.482;9.762;2022-08-01T16:11:12;24.60;99.90
33255;DHT22;19623;52.482;9.762;2022-08-01T16:13:38;24.50;99.90
33255;DHT22;19623;52.482;9.762;2022-08-01T16:16:04;24.60;99.90
33255;DHT22;19623;52.482;9.762;2022-08-01T16:18:31;24.30;99.90